Wilsonia, California
Current Conditions -  °F | °C
As of 7:56 AM on Wednesday 26 Nov 2014 (Local Time) from KBIH Reporting Station
Clear Clear  
Wind Chill: 32°   Ceiling: Unl
Heat Index: 37°   Visibility: 10mi
Dew Point: 15°   Wind: 7mph
Humidity: 41%   Direction: 350°N
Pressure: 30.47"   Gusts: NA
Location:  36.7872°N, 118.66°W
Report Text: KBIH 261556Z AUTO 35006KT 10SM CLR 03/M09 A3047 RMK AO2 SLP318 T00281094
Loading
Personal Weather Stations






























Interactive Weather Map New forecast layout! Learn more

10-Day Weather Forecast

Advertisements
Track Severe Weather on mobile